Cornettsville, Indiana
Current Conditions -  °F | °C
As of 5:35 AM on Friday 24 Oct 2014 (Local Time) from KDCY Reporting Station
Overcast Overcast  
Wind Chill: 44°   Ceiling: 3500
Heat Index: 44°   Visibility: 7mi
Dew Point: 44°   Wind: 0mph
Humidity: 100%   Direction: NA
Pressure: 30.12"   Gusts: NA
Location:  38.7791°N, 87.1828°W
Report Text: KDCY 241035Z AUTO 00000KT 7SM OVC035 07/07 A3012 RMK AO2 T00650065
Loading
Personal Weather Stations






























Interactive Weather Map
Tropical Storm Tracking
New forecast layout! Learn more

10-Day Weather Forecast

Advertisements
Track Severe Weather on mobile